sensor_id;sensor_type;location;lat;lon;timestamp;P1;durP1;ratioP1;P2;durP2;ratioP2
66946;SDS011;53853;51.982;5.928;2023-10-08T00:01:15;14.95;;;6.20;;
66946;SDS011;53853;51.982;5.928;2023-10-08T00:03:45;16.30;;;6.05;;
66946;SDS011;53853;51.982;5.928;2023-10-08T00:06:17;13.63;;;5.40;;
66946;SDS011;53853;51.982;5.928;2023-10-08T00:08:50;10.93;;;5.15;;
66946;SDS011;53853;51.982;5.928;2023-10-08T00:11:25;11.93;;;5.35;;
66946;SDS011;53853;51.982;5.928;2023-10-08T00:13:56;14.65;;;5.55;;
66946;SDS011;53853;51.982;5.928;2023-10-08T00:16:27;14.50;;;6.15;;
66946;SDS011;53853;51.982;5.928;2023-10-08T00:18:59;10.07;;;4.40;;
66946;SDS011;53853;51.982;5.928;2023-10-08T00:21:34;9.88;;;4.68;;
66946;SDS011;53853;51.982;5.928;2023-10-08T00:24:08;18.00;;;6.22;;
66946;SDS011;53853;51.982;5.928;2023-10-08T00:26:38;12.68;;;5.30;;
66946;SDS011;53853;51.982;5.928;2023-10-08T00:29:09;12.70;;;6.07;;
66946;SDS011;53853;51.982;5.928;2023-10-08T00:31:47;18.20;;;6.13;;
66946;SDS011;53853;51.982;5.928;2023-10-08T00:34:18;15.88;;;6.40;;
66946;SDS011;53853;51.982;5.928;2023-10-08T00:36:48;16.63;;;7.00;;
66946;SDS011;53853;51.982;5.928;2023-10-08T00:39:20;14.38;;;5.82;;
66946;SDS011;53853;51.982;5.928;2023-10-08T00:42:00;8.52;;;4.13;;
66946;SDS011;53853;51.982;5.928;2023-10-08T00:44:31;17.58;;;5.93;;
66946;SDS011;53853;51.982;5.928;2023-10-08T00:47:07;10.65;;;4.82;;
66946;SDS011;53853;51.982;5.928;2023-10-08T00:49:38;13.25;;;5.32;;
66946;SDS011;53853;51.982;5.928;2023-10-08T00:52:21;11.38;;;5.00;;
66946;SDS011;53853;51.982;5.928;2023-10-08T00:55:08;16.80;;;6.82;;
66946;SDS011;53853;51.982;5.928;2023-10-08T00:57:46;12.88;;;4.63;;
66946;SDS011;53853;51.982;5.928;2023-10-08T01:00:20;12.20;;;4.97;;
66946;SDS011;53853;51.982;5.928;2023-10-08T01:02:58;14.90;;;5.20;;
66946;SDS011;53853;51.982;5.928;2023-10-08T01:05:36;9.90;;;4.38;;
66946;SDS011;53853;51.982;5.928;2023-10-08T01:08:12;11.95;;;5.35;;
66946;SDS011;53853;51.982;5.928;2023-10-08T01:10:50;8.02;;;4.32;;
66946;SDS011;53853;51.982;5.928;2023-10-08T01:13:26;7.07;;;3.42;;
66946;SDS011;53853;51.982;5.928;2023-10-08T01:16:08;12.32;;;5.38;;
66946;SDS011;53853;51.982;5.928;2023-10-08T01:18:39;11.80;;;4.95;;
66946;SDS011;53853;51.982;5.928;2023-10-08T01:21:16;15.77;;;5.93;;
66946;SDS011;53853;51.982;5.928;2023-10-08T01:24:03;18.50;;;5.97;;
66946;SDS011;53853;51.982;5.928;2023-10-08T01:26:34;7.68;;;3.78;;
66946;SDS011;53853;51.982;5.928;2023-10-08T01:29:08;7.97;;;3.60;;
66946;SDS011;53853;51.982;5.928;2023-10-08T01:31:45;9.85;;;4.78;;
66946;SDS011;53853;51.982;5.928;2023-10-08T01:34:15;15.93;;;6.30;;
66946;SDS011;53853;51.982;5.928;2023-10-08T01:36:52;12.40;;;5.05;;
66946;SDS011;53853;51.982;5.928;2023-10-08T01:39:24;12.70;;;5.90;;
66946;SDS011;53853;51.982;5.928;2023-10-08T01:41:58;11.60;;;4.95;;
66946;SDS011;53853;51.982;5.928;2023-10-08T01:44:28;11.82;;;5.03;;
66946;SDS011;53853;51.982;5.928;2023-10-08T01:46:59;9.02;;;4.32;;
66946;SDS011;53853;51.982;5.928;2023-10-08T01:49:30;7.80;;;4.03;;
66946;SDS011;53853;51.982;5.928;2023-10-08T01:52:00;17.65;;;6.07;;
66946;SDS011;53853;51.982;5.928;2023-10-08T01:54:41;7.07;;;3.65;;
66946;SDS011;53853;51.982;5.928;2023-10-08T01:57:11;11.35;;;4.65;;
66946;SDS011;53853;51.982;5.928;2023-10-08T01:59:41;6.85;;;3.10;;
66946;SDS011;53853;51.982;5.928;2023-10-08T02:02:11;5.80;;;3.33;;
66946;SDS011;53853;51.982;5.928;2023-10-08T02:04:41;9.20;;;3.50;;
66946;SDS011;53853;51.982;5.928;2023-10-08T02:07:12;6.65;;;3.10;;
66946;SDS011;53853;51.982;5.928;2023-10-08T02:09:46;4.22;;;2.40;;
66946;SDS011;53853;51.982;5.928;2023-10-08T02:12:16;5.43;;;3.15;;
66946;SDS011;53853;51.982;5.928;2023-10-08T02:14:46;11.20;;;4.95;;
66946;SDS011;53853;51.982;5.928;2023-10-08T02:17:15;8.95;;;4.00;;
66946;SDS011;53853;51.982;5.928;2023-10-08T02:19:45;7.45;;;3.53;;
66946;SDS011;53853;51.982;5.928;2023-10-08T02:22:15;6.75;;;3.63;;
66946;SDS011;53853;51.982;5.928;2023-10-08T02:24:48;5.63;;;2.72;;
66946;SDS011;53853;51.982;5.928;2023-10-08T02:27:19;5.25;;;2.67;;
66946;SDS011;53853;51.982;5.928;2023-10-08T02:29:49;6.70;;;2.97;;
66946;SDS011;53853;51.982;5.928;2023-10-08T02:32:18;8.00;;;3.28;;
66946;SDS011;53853;51.982;5.928;2023-10-08T02:34:49;8.75;;;4.18;;
66946;SDS011;53853;51.982;5.928;2023-10-08T02:37:19;8.68;;;4.10;;
66946;SDS011;53853;51.982;5.928;2023-10-08T02:39:51;11.75;;;5.22;;
66946;SDS011;53853;51.982;5.928;2023-10-08T02:42:23;8.77;;;3.88;;
66946;SDS011;53853;51.982;5.928;2023-10-08T02:44:53;6.78;;;3.65;;
66946;SDS011;53853;51.982;5.928;2023-10-08T02:47:26;12.65;;;5.28;;
66946;SDS011;53853;51.982;5.928;2023-10-08T02:49:57;10.90;;;5.45;;
66946;SDS011;53853;51.982;5.928;2023-10-08T02:52:33;7.40;;;3.95;;
66946;SDS011;53853;51.982;5.928;2023-10-08T02:55:06;13.20;;;6.80;;
66946;SDS011;53853;51.982;5.928;2023-10-08T02:57:54;8.35;;;4.85;;
66946;SDS011;53853;51.982;5.928;2023-10-08T03:00:24;13.43;;;6.78;;
66946;SDS011;53853;51.982;5.928;2023-10-08T03:02:56;13.90;;;7.57;;
66946;SDS011;53853;51.982;5.928;2023-10-08T03:05:27;12.18;;;7.47;;
66946;SDS011;53853;51.982;5.928;2023-10-08T03:08:03;15.07;;;8.82;;
66946;SDS011;53853;51.982;5.928;2023-10-08T03:10:39;13.05;;;8.00;;
66946;SDS011;53853;51.982;5.928;2023-10-08T03:13:10;23.20;;;13.57;;
66946;SDS011;53853;51.982;5.928;2023-10-08T03:15:42;30.08;;;17.00;;
66946;SDS011;53853;51.982;5.928;2023-10-08T03:18:24;20.88;;;13.88;;
66946;SDS011;53853;51.982;5.928;2023-10-08T03:21:02;30.75;;;14.82;;
66946;SDS011;53853;51.982;5.928;2023-10-08T03:23:45;23.33;;;11.80;;
66946;SDS011;53853;51.982;5.928;2023-10-08T03:26:19;28.10;;;15.75;;
66946;SDS011;53853;51.982;5.928;2023-10-08T03:29:05;26.50;;;13.27;;
66946;SDS011;53853;51.982;5.928;2023-10-08T03:31:41;29.05;;;15.60;;
66946;SDS011;53853;51.982;5.928;2023-10-08T03:34:21;20.10;;;12.20;;
66946;SDS011;53853;51.982;5.928;2023-10-08T03:36:54;21.23;;;11.00;;
66946;SDS011;53853;51.982;5.928;2023-10-08T03:39:31;16.63;;;8.82;;
66946;SDS011;53853;51.982;5.928;2023-10-08T03:42:22;16.25;;;8.05;;
66946;SDS011;53853;51.982;5.928;2023-10-08T03:44:56;13.38;;;7.43;;
66946;SDS011;53853;51.982;5.928;2023-10-08T03:47:36;12.23;;;6.15;;
66946;SDS011;53853;51.982;5.928;2023-10-08T03:50:12;14.13;;;7.13;;
66946;SDS011;53853;51.982;5.928;2023-10-08T03:52:43;11.48;;;5.40;;
66946;SDS011;53853;51.982;5.928;2023-10-08T03:55:14;15.60;;;7.00;;
66946;SDS011;53853;51.982;5.928;2023-10-08T03:57:55;13.82;;;6.03;;
66946;SDS011;53853;51.982;5.928;2023-10-08T04:00:29;11.30;;;5.28;;
66946;SDS011;53853;51.982;5.928;2023-10-08T04:03:07;8.70;;;5.07;;
66946;SDS011;53853;51.982;5.928;2023-10-08T04:05:37;7.05;;;4.80;;
66946;SDS011;53853;51.982;5.928;2023-10-08T04:08:25;8.57;;;5.13;;
66946;SDS011;53853;51.982;5.928;2023-10-08T04:11:08;10.60;;;5.25;;
66946;SDS011;53853;51.982;5.928;2023-10-08T04:13:59;11.45;;;5.78;;
66946;SDS011;53853;51.982;5.928;2023-10-08T04:16:29;9.95;;;5.45;;
66946;SDS011;53853;51.982;5.928;2023-10-08T04:19:02;12.95;;;6.80;;
66946;SDS011;53853;51.982;5.928;2023-10-08T04:21:33;11.25;;;6.15;;
66946;SDS011;53853;51.982;5.928;2023-10-08T04:24:03;11.85;;;6.00;;
66946;SDS011;53853;51.982;5.928;2023-10-08T04:26:34;13.02;;;6.43;;
66946;SDS011;53853;51.982;5.928;2023-10-08T04:29:09;14.00;;;8.13;;
66946;SDS011;53853;51.982;5.928;2023-10-08T04:31:42;23.42;;;8.15;;
66946;SDS011;53853;51.982;5.928;2023-10-08T04:34:12;16.17;;;7.03;;
66946;SDS011;53853;51.982;5.928;2023-10-08T04:36:48;13.70;;;6.07;;
66946;SDS011;53853;51.982;5.928;2023-10-08T04:39:20;11.48;;;5.15;;
66946;SDS011;53853;51.982;5.928;2023-10-08T04:41:57;12.77;;;5.03;;
66946;SDS011;53853;51.982;5.928;2023-10-08T04:44:35;8.35;;;4.57;;
66946;SDS011;53853;51.982;5.928;2023-10-08T04:47:05;7.15;;;3.55;;
66946;SDS011;53853;51.982;5.928;2023-10-08T04:49:53;6.57;;;2.97;;
66946;SDS011;53853;51.982;5.928;2023-10-08T04:52:23;10.75;;;3.80;;
66946;SDS011;53853;51.982;5.928;2023-10-08T04:54:53;8.10;;;3.58;;
66946;SDS011;53853;51.982;5.928;2023-10-08T04:57:31;6.95;;;3.10;;
66946;SDS011;53853;51.982;5.928;2023-10-08T05:00:04;6.88;;;3.00;;
66946;SDS011;53853;51.982;5.928;2023-10-08T05:02:40;6.20;;;3.42;;
66946;SDS011;53853;51.982;5.928;2023-10-08T05:05:15;6.03;;;2.88;;
66946;SDS011;53853;51.982;5.928;2023-10-08T05:07:55;5.18;;;2.50;;
66946;SDS011;53853;51.982;5.928;2023-10-08T05:10:37;6.13;;;2.67;;
66946;SDS011;53853;51.982;5.928;2023-10-08T05:13:26;5.32;;;2.38;;
66946;SDS011;53853;51.982;5.928;2023-10-08T05:16:03;5.95;;;2.40;;
66946;SDS011;53853;51.982;5.928;2023-10-08T05:18:55;3.63;;;1.80;;
66946;SDS011;53853;51.982;5.928;2023-10-08T05:21:37;3.72;;;2.33;;
66946;SDS011;53853;51.982;5.928;2023-10-08T05:24:18;6.70;;;2.83;;
66946;SDS011;53853;51.982;5.928;2023-10-08T05:26:53;3.80;;;2.00;;
66946;SDS011;53853;51.982;5.928;2023-10-08T05:32:39;5.68;;;2.58;;
66946;SDS011;53853;51.982;5.928;2023-10-08T05:35:31;6.53;;;2.10;;
66946;SDS011;53853;51.982;5.928;2023-10-08T05:38:14;5.55;;;2.70;;
66946;SDS011;53853;51.982;5.928;2023-10-08T05:41:04;4.03;;;2.00;;
66946;SDS011;53853;51.982;5.928;2023-10-08T05:43:42;4.32;;;2.15;;
66946;SDS011;53853;51.982;5.928;2023-10-08T05:46:40;6.22;;;2.83;;
66946;SDS011;53853;51.982;5.928;2023-10-08T05:49:19;8.93;;;3.50;;
66946;SDS011;53853;51.982;5.928;2023-10-08T05:52:09;5.03;;;2.90;;
66946;SDS011;53853;51.982;5.928;2023-10-08T05:54:53;4.57;;;2.58;;
66946;SDS011;53853;51.982;5.928;2023-10-08T05:57:41;6.10;;;2.88;;
66946;SDS011;53853;51.982;5.928;2023-10-08T06:00:18;5.07;;;2.72;;
66946;SDS011;53853;51.982;5.928;2023-10-08T06:03:00;6.20;;;2.78;;
66946;SDS011;53853;51.982;5.928;2023-10-08T06:06:01;6.20;;;3.08;;
66946;SDS011;53853;51.982;5.928;2023-10-08T06:08:44;5.25;;;2.50;;
66946;SDS011;53853;51.982;5.928;2023-10-08T06:11:35;7.80;;;2.80;;
66946;SDS011;53853;51.982;5.928;2023-10-08T06:14:07;6.45;;;3.10;;
66946;SDS011;53853;51.982;5.928;2023-10-08T06:16:53;7.90;;;2.70;;
66946;SDS011;53853;51.982;5.928;2023-10-08T06:19:39;7.55;;;3.38;;
66946;SDS011;53853;51.982;5.928;2023-10-08T06:22:11;8.77;;;3.17;;
66946;SDS011;53853;51.982;5.928;2023-10-08T06:24:41;7.85;;;3.08;;
66946;SDS011;53853;51.982;5.928;2023-10-08T06:27:11;5.55;;;2.22;;
66946;SDS011;53853;51.982;5.928;2023-10-08T06:29:43;5.55;;;3.40;;
66946;SDS011;53853;51.982;5.928;2023-10-08T06:32:12;3.92;;;2.42;;
66946;SDS011;53853;51.982;5.928;2023-10-08T06:37:18;4.85;;;2.35;;
66946;SDS011;53853;51.982;5.928;2023-10-08T06:39:49;6.35;;;2.45;;
66946;SDS011;53853;51.982;5.928;2023-10-08T06:42:23;5.43;;;3.30;;
66946;SDS011;53853;51.982;5.928;2023-10-08T06:44:55;4.25;;;2.33;;
66946;SDS011;53853;51.982;5.928;2023-10-08T06:47:27;5.80;;;2.45;;
66946;SDS011;53853;51.982;5.928;2023-10-08T06:49:58;5.32;;;2.53;;
66946;SDS011;53853;51.982;5.928;2023-10-08T06:52:33;3.33;;;2.42;;
66946;SDS011;53853;51.982;5.928;2023-10-08T06:55:03;7.95;;;2.97;;
66946;SDS011;53853;51.982;5.928;2023-10-08T06:57:37;6.60;;;3.00;;
66946;SDS011;53853;51.982;5.928;2023-10-08T07:00:08;4.53;;;2.10;;
66946;SDS011;53853;51.982;5.928;2023-10-08T07:03:00;4.32;;;2.35;;
66946;SDS011;53853;51.982;5.928;2023-10-08T07:05:29;2.45;;;1.70;;
66946;SDS011;53853;51.982;5.928;2023-10-08T07:08:09;3.42;;;2.70;;
66946;SDS011;53853;51.982;5.928;2023-10-08T07:10:40;3.28;;;2.08;;
66946;SDS011;53853;51.982;5.928;2023-10-08T07:13:12;3.05;;;2.35;;
66946;SDS011;53853;51.982;5.928;2023-10-08T07:15:43;3.47;;;2.20;;
66946;SDS011;53853;51.982;5.928;2023-10-08T07:18:13;4.30;;;2.65;;
66946;SDS011;53853;51.982;5.928;2023-10-08T07:20:51;4.00;;;2.72;;
66946;SDS011;53853;51.982;5.928;2023-10-08T07:23:29;3.80;;;2.65;;
66946;SDS011;53853;51.982;5.928;2023-10-08T07:28:36;3.92;;;3.00;;
66946;SDS011;53853;51.982;5.928;2023-10-08T07:31:12;5.20;;;3.17;;
66946;SDS011;53853;51.982;5.928;2023-10-08T07:33:43;3.95;;;3.35;;
66946;SDS011;53853;51.982;5.928;2023-10-08T07:36:41;3.67;;;2.95;;
66946;SDS011;53853;51.982;5.928;2023-10-08T07:39:15;3.60;;;2.83;;
66946;SDS011;53853;51.982;5.928;2023-10-08T07:41:59;3.80;;;3.00;;
66946;SDS011;53853;51.982;5.928;2023-10-08T07:44:31;4.70;;;3.90;;
66946;SDS011;53853;51.982;5.928;2023-10-08T07:47:01;3.33;;;2.78;;
66946;SDS011;53853;51.982;5.928;2023-10-08T07:49:36;3.05;;;2.47;;
66946;SDS011;53853;51.982;5.928;2023-10-08T07:52:06;3.33;;;2.58;;
66946;SDS011;53853;51.982;5.928;2023-10-08T07:54:43;3.45;;;3.15;;
66946;SDS011;53853;51.982;5.928;2023-10-08T07:57:13;5.57;;;4.85;;
66946;SDS011;53853;51.982;5.928;2023-10-08T07:59:51;4.95;;;4.32;;
66946;SDS011;53853;51.982;5.928;2023-10-08T08:02:42;4.03;;;3.63;;
66946;SDS011;53853;51.982;5.928;2023-10-08T08:05:12;5.18;;;4.13;;
66946;SDS011;53853;51.982;5.928;2023-10-08T08:07:43;4.40;;;4.00;;
66946;SDS011;53853;51.982;5.928;2023-10-08T08:10:18;4.65;;;3.70;;
66946;SDS011;53853;51.982;5.928;2023-10-08T08:12:49;4.32;;;3.80;;
66946;SDS011;53853;51.982;5.928;2023-10-08T08:15:22;5.20;;;4.10;;
66946;SDS011;53853;51.982;5.928;2023-10-08T08:17:54;6.03;;;5.05;;
66946;SDS011;53853;51.982;5.928;2023-10-08T08:20:24;6.80;;;6.10;;
66946;SDS011;53853;51.982;5.928;2023-10-08T08:23:00;5.68;;;5.10;;
66946;SDS011;53853;51.982;5.928;2023-10-08T08:25:37;6.25;;;4.72;;
66946;SDS011;53853;51.982;5.928;2023-10-08T08:28:31;4.97;;;4.47;;
66946;SDS011;53853;51.982;5.928;2023-10-08T08:31:01;5.10;;;4.03;;
66946;SDS011;53853;51.982;5.928;2023-10-08T08:33:40;5.55;;;4.85;;
66946;SDS011;53853;51.982;5.928;2023-10-08T08:36:23;4.30;;;3.90;;
66946;SDS011;53853;51.982;5.928;2023-10-08T08:38:53;5.10;;;3.58;;
66946;SDS011;53853;51.982;5.928;2023-10-08T08:41:25;5.93;;;4.75;;
66946;SDS011;53853;51.982;5.928;2023-10-08T08:43:55;5.65;;;4.88;;
66946;SDS011;53853;51.982;5.928;2023-10-08T08:46:31;6.43;;;4.90;;
66946;SDS011;53853;51.982;5.928;2023-10-08T08:49:04;6.18;;;4.85;;
66946;SDS011;53853;51.982;5.928;2023-10-08T08:51:35;4.88;;;4.00;;
66946;SDS011;53853;51.982;5.928;2023-10-08T08:54:07;5.55;;;3.97;;
66946;SDS011;53853;51.982;5.928;2023-10-08T08:56:40;4.70;;;3.72;;
66946;SDS011;53853;51.982;5.928;2023-10-08T08:59:11;6.97;;;3.95;;
66946;SDS011;53853;51.982;5.928;2023-10-08T09:01:43;4.70;;;3.38;;
66946;SDS011;53853;51.982;5.928;2023-10-08T09:04:16;4.72;;;3.28;;
66946;SDS011;53853;51.982;5.928;2023-10-08T09:06:56;3.83;;;3.10;;
66946;SDS011;53853;51.982;5.928;2023-10-08T09:09:33;5.43;;;3.10;;
66946;SDS011;53853;51.982;5.928;2023-10-08T09:12:08;4.00;;;2.10;;
66946;SDS011;53853;51.982;5.928;2023-10-08T09:14:38;5.15;;;2.75;;
66946;SDS011;53853;51.982;5.928;2023-10-08T09:17:10;4.15;;;2.25;;
66946;SDS011;53853;51.982;5.928;2023-10-08T09:19:41;4.10;;;2.60;;
66946;SDS011;53853;51.982;5.928;2023-10-08T09:22:11;4.95;;;2.72;;
66946;SDS011;53853;51.982;5.928;2023-10-08T09:27:20;4.40;;;2.38;;
66946;SDS011;53853;51.982;5.928;2023-10-08T09:29:50;4.57;;;2.00;;
66946;SDS011;53853;51.982;5.928;2023-10-08T09:32:21;3.53;;;1.90;;
66946;SDS011;53853;51.982;5.928;2023-10-08T09:34:51;5.43;;;2.53;;
66946;SDS011;53853;51.982;5.928;2023-10-08T09:37:22;3.22;;;1.90;;
66946;SDS011;53853;51.982;5.928;2023-10-08T09:39:53;5.70;;;2.33;;
66946;SDS011;53853;51.982;5.928;2023-10-08T09:42:27;4.63;;;2.13;;
66946;SDS011;53853;51.982;5.928;2023-10-08T09:44:57;3.65;;;1.67;;
66946;SDS011;53853;51.982;5.928;2023-10-08T09:47:31;3.17;;;1.67;;
66946;SDS011;53853;51.982;5.928;2023-10-08T09:50:07;3.75;;;1.92;;
66946;SDS011;53853;51.982;5.928;2023-10-08T09:52:39;4.18;;;1.85;;
66946;SDS011;53853;51.982;5.928;2023-10-08T09:55:17;3.45;;;1.88;;
66946;SDS011;53853;51.982;5.928;2023-10-08T09:57:50;5.30;;;1.92;;
66946;SDS011;53853;51.982;5.928;2023-10-08T10:00:21;4.70;;;2.13;;
66946;SDS011;53853;51.982;5.928;2023-10-08T10:02:58;3.78;;;2.30;;
66946;SDS011;53853;51.982;5.928;2023-10-08T10:05:29;2.80;;;1.55;;
66946;SDS011;53853;51.982;5.928;2023-10-08T10:08:02;4.25;;;2.28;;
66946;SDS011;53853;51.982;5.928;2023-10-08T10:10:36;4.43;;;1.95;;
66946;SDS011;53853;51.982;5.928;2023-10-08T10:13:16;5.15;;;2.40;;
66946;SDS011;53853;51.982;5.928;2023-10-08T10:15:47;2.95;;;1.85;;
66946;SDS011;53853;51.982;5.928;2023-10-08T10:18:27;5.28;;;1.92;;
66946;SDS011;53853;51.982;5.928;2023-10-08T10:20:58;2.42;;;1.33;;
66946;SDS011;53853;51.982;5.928;2023-10-08T10:23:35;5.07;;;1.77;;
66946;SDS011;53853;51.982;5.928;2023-10-08T10:26:21;3.05;;;1.33;;
66946;SDS011;53853;51.982;5.928;2023-10-08T10:31:52;4.88;;;1.83;;
66946;SDS011;53853;51.982;5.928;2023-10-08T10:34:25;5.07;;;1.65;;
66946;SDS011;53853;51.982;5.928;2023-10-08T10:36:56;3.63;;;1.65;;
66946;SDS011;53853;51.982;5.928;2023-10-08T10:39:34;4.53;;;1.40;;
66946;SDS011;53853;51.982;5.928;2023-10-08T10:42:07;2.72;;;1.75;;
66946;SDS011;53853;51.982;5.928;2023-10-08T10:44:49;1.98;;;1.17;;
66946;SDS011;53853;51.982;5.928;2023-10-08T10:47:19;1.50;;;1.00;;
66946;SDS011;53853;51.982;5.928;2023-10-08T10:49:53;4.43;;;1.80;;
66946;SDS011;53853;51.982;5.928;2023-10-08T10:52:44;3.70;;;1.52;;
66946;SDS011;53853;51.982;5.928;2023-10-08T10:55:17;3.72;;;1.88;;
66946;SDS011;53853;51.982;5.928;2023-10-08T10:57:57;5.20;;;1.63;;
66946;SDS011;53853;51.982;5.928;2023-10-08T11:00:32;3.00;;;1.63;;
66946;SDS011;53853;51.982;5.928;2023-10-08T11:03:23;4.22;;;1.40;;
66946;SDS011;53853;51.982;5.928;2023-10-08T11:05:52;2.92;;;1.45;;
66946;SDS011;53853;51.982;5.928;2023-10-08T11:08:32;3.20;;;1.60;;
66946;SDS011;53853;51.982;5.928;2023-10-08T11:11:11;3.58;;;1.40;;
66946;SDS011;53853;51.982;5.928;2023-10-08T11:13:43;4.35;;;2.00;;
66946;SDS011;53853;51.982;5.928;2023-10-08T11:16:22;4.63;;;1.85;;
66946;SDS011;53853;51.982;5.928;2023-10-08T11:18:53;4.30;;;1.63;;
66946;SDS011;53853;51.982;5.928;2023-10-08T11:21:27;3.85;;;1.67;;
66946;SDS011;53853;51.982;5.928;2023-10-08T11:23:59;4.28;;;1.92;;
66946;SDS011;53853;51.982;5.928;2023-10-08T11:26:35;5.80;;;2.20;;
66946;SDS011;53853;51.982;5.928;2023-10-08T11:29:20;3.03;;;1.83;;
66946;SDS011;53853;51.982;5.928;2023-10-08T11:31:54;4.28;;;2.03;;
66946;SDS011;53853;51.982;5.928;2023-10-08T11:34:31;5.57;;;2.22;;
66946;SDS011;53853;51.982;5.928;2023-10-08T11:37:05;3.38;;;1.52;;
66946;SDS011;53853;51.982;5.928;2023-10-08T11:39:45;4.18;;;1.67;;
66946;SDS011;53853;51.982;5.928;2023-10-08T11:42:18;3.65;;;1.60;;
66946;SDS011;53853;51.982;5.928;2023-10-08T11:45:00;2.90;;;1.67;;
66946;SDS011;53853;51.982;5.928;2023-10-08T11:47:46;4.72;;;2.00;;
66946;SDS011;53853;51.982;5.928;2023-10-08T11:50:24;3.05;;;1.30;;
66946;SDS011;53853;51.982;5.928;2023-10-08T11:53:01;3.08;;;1.65;;
66946;SDS011;53853;51.982;5.928;2023-10-08T11:55:32;2.60;;;1.65;;
66946;SDS011;53853;51.982;5.928;2023-10-08T11:58:05;2.63;;;1.60;;
66946;SDS011;53853;51.982;5.928;2023-10-08T12:00:43;2.92;;;1.55;;
66946;SDS011;53853;51.982;5.928;2023-10-08T12:03:20;2.92;;;1.50;;
66946;SDS011;53853;51.982;5.928;2023-10-08T12:05:52;2.80;;;2.00;;
66946;SDS011;53853;51.982;5.928;2023-10-08T12:08:25;2.63;;;1.80;;
66946;SDS011;53853;51.982;5.928;2023-10-08T12:10:56;2.95;;;1.70;;
66946;SDS011;53853;51.982;5.928;2023-10-08T12:13:26;3.20;;;2.25;;
66946;SDS011;53853;51.982;5.928;2023-10-08T12:15:57;3.40;;;2.10;;
66946;SDS011;53853;51.982;5.928;2023-10-08T12:18:34;3.00;;;1.77;;
66946;SDS011;53853;51.982;5.928;2023-10-08T12:21:08;3.35;;;1.83;;
66946;SDS011;53853;51.982;5.928;2023-10-08T12:23:41;2.42;;;1.73;;
66946;SDS011;53853;51.982;5.928;2023-10-08T12:26:12;3.38;;;2.15;;
66946;SDS011;53853;51.982;5.928;2023-10-08T12:28:45;2.22;;;1.70;;
66946;SDS011;53853;51.982;5.928;2023-10-08T12:31:15;2.55;;;1.85;;
66946;SDS011;53853;51.982;5.928;2023-10-08T12:33:50;3.15;;;1.90;;
66946;SDS011;53853;51.982;5.928;2023-10-08T12:36:23;3.30;;;1.85;;
66946;SDS011;53853;51.982;5.928;2023-10-08T12:38:58;2.92;;;2.17;;
66946;SDS011;53853;51.982;5.928;2023-10-08T12:41:34;3.40;;;1.90;;
66946;SDS011;53853;51.982;5.928;2023-10-08T12:44:04;3.20;;;1.77;;
66946;SDS011;53853;51.982;5.928;2023-10-08T12:46:35;3.47;;;2.25;;
66946;SDS011;53853;51.982;5.928;2023-10-08T12:49:10;3.55;;;2.15;;
66946;SDS011;53853;51.982;5.928;2023-10-08T12:51:40;3.65;;;1.67;;
66946;SDS011;53853;51.982;5.928;2023-10-08T12:54:11;1.88;;;1.30;;
66946;SDS011;53853;51.982;5.928;2023-10-08T12:56:47;8.52;;;3.10;;
66946;SDS011;53853;51.982;5.928;2023-10-08T12:59:20;3.55;;;2.08;;
66946;SDS011;53853;51.982;5.928;2023-10-08T13:01:50;4.63;;;2.67;;
66946;SDS011;53853;51.982;5.928;2023-10-08T13:04:23;3.78;;;2.33;;
66946;SDS011;53853;51.982;5.928;2023-10-08T13:06:54;3.03;;;2.03;;
66946;SDS011;53853;51.982;5.928;2023-10-08T13:09:27;4.35;;;2.33;;
66946;SDS011;53853;51.982;5.928;2023-10-08T13:11:57;2.40;;;1.38;;
66946;SDS011;53853;51.982;5.928;2023-10-08T13:14:28;3.50;;;2.03;;
66946;SDS011;53853;51.982;5.928;2023-10-08T13:17:00;2.05;;;1.40;;
66946;SDS011;53853;51.982;5.928;2023-10-08T13:19:39;3.80;;;1.65;;
66946;SDS011;53853;51.982;5.928;2023-10-08T13:22:11;2.35;;;1.38;;
66946;SDS011;53853;51.982;5.928;2023-10-08T13:27:15;4.93;;;1.98;;
66946;SDS011;53853;51.982;5.928;2023-10-08T13:29:45;3.05;;;1.75;;
66946;SDS011;53853;51.982;5.928;2023-10-08T13:32:14;1.55;;;1.05;;
66946;SDS011;53853;51.982;5.928;2023-10-08T13:34:48;4.38;;;1.85;;
66946;SDS011;53853;51.982;5.928;2023-10-08T13:37:18;3.25;;;1.50;;
66946;SDS011;53853;51.982;5.928;2023-10-08T13:39:48;4.22;;;2.03;;
66946;SDS011;53853;51.982;5.928;2023-10-08T13:42:18;3.80;;;2.00;;
66946;SDS011;53853;51.982;5.928;2023-10-08T13:44:48;3.67;;;1.80;;
66946;SDS011;53853;51.982;5.928;2023-10-08T13:47:18;2.03;;;1.30;;
66946;SDS011;53853;51.982;5.928;2023-10-08T13:49:54;3.42;;;1.77;;
66946;SDS011;53853;51.982;5.928;2023-10-08T13:52:24;2.28;;;1.40;;
66946;SDS011;53853;51.982;5.928;2023-10-08T13:54:55;2.95;;;1.63;;
66946;SDS011;53853;51.982;5.928;2023-10-08T13:57:25;3.00;;;1.65;;
66946;SDS011;53853;51.982;5.928;2023-10-08T13:59:58;2.43;;;1.20;;
66946;SDS011;53853;51.982;5.928;2023-10-08T14:02:38;3.78;;;1.48;;
66946;SDS011;53853;51.982;5.928;2023-10-08T14:05:10;2.60;;;1.50;;
66946;SDS011;53853;51.982;5.928;2023-10-08T14:07:41;2.55;;;1.60;;
66946;SDS011;53853;51.982;5.928;2023-10-08T14:10:15;3.33;;;1.40;;
66946;SDS011;53853;51.982;5.928;2023-10-08T14:12:46;2.13;;;1.23;;
66946;SDS011;53853;51.982;5.928;2023-10-08T14:15:17;2.33;;;1.48;;
66946;SDS011;53853;51.982;5.928;2023-10-08T14:17:48;2.40;;;1.40;;
66946;SDS011;53853;51.982;5.928;2023-10-08T14:20:26;3.10;;;1.58;;
66946;SDS011;53853;51.982;5.928;2023-10-08T14:22:57;4.05;;;1.90;;
66946;SDS011;53853;51.982;5.928;2023-10-08T14:25:29;2.90;;;1.92;;
66946;SDS011;53853;51.982;5.928;2023-10-08T14:28:08;3.25;;;2.17;;
66946;SDS011;53853;51.982;5.928;2023-10-08T14:30:48;4.20;;;3.00;;
66946;SDS011;53853;51.982;5.928;2023-10-08T14:35:59;5.03;;;2.80;;
66946;SDS011;53853;51.982;5.928;2023-10-08T14:38:42;3.55;;;2.70;;
66946;SDS011;53853;51.982;5.928;2023-10-08T14:41:24;4.40;;;2.65;;
66946;SDS011;53853;51.982;5.928;2023-10-08T14:44:06;3.55;;;1.90;;
66946;SDS011;53853;51.982;5.928;2023-10-08T14:46:36;4.05;;;2.03;;
66946;SDS011;53853;51.982;5.928;2023-10-08T14:49:06;3.28;;;1.90;;
66946;SDS011;53853;51.982;5.928;2023-10-08T14:51:39;2.47;;;1.50;;
66946;SDS011;53853;51.982;5.928;2023-10-08T14:54:13;3.22;;;1.45;;
66946;SDS011;53853;51.982;5.928;2023-10-08T14:56:44;2.72;;;1.52;;
66946;SDS011;53853;51.982;5.928;2023-10-08T14:59:15;3.45;;;1.85;;
66946;SDS011;53853;51.982;5.928;2023-10-08T15:01:46;2.63;;;1.52;;
66946;SDS011;53853;51.982;5.928;2023-10-08T15:04:16;4.25;;;2.10;;
66946;SDS011;53853;51.982;5.928;2023-10-08T15:06:49;4.40;;;2.05;;
66946;SDS011;53853;51.982;5.928;2023-10-08T15:11:50;4.90;;;2.40;;
66946;SDS011;53853;51.982;5.928;2023-10-08T15:14:21;3.25;;;2.33;;
66946;SDS011;53853;51.982;5.928;2023-10-08T15:16:52;2.75;;;1.90;;
66946;SDS011;53853;51.982;5.928;2023-10-08T15:19:23;3.28;;;2.15;;
66946;SDS011;53853;51.982;5.928;2023-10-08T15:21:55;3.85;;;2.20;;
66946;SDS011;53853;51.982;5.928;2023-10-08T15:24:26;2.80;;;2.10;;
66946;SDS011;53853;51.982;5.928;2023-10-08T15:26:56;4.00;;;2.70;;
66946;SDS011;53853;51.982;5.928;2023-10-08T15:29:26;3.65;;;2.30;;
66946;SDS011;53853;51.982;5.928;2023-10-08T15:31:56;4.38;;;2.65;;
66946;SDS011;53853;51.982;5.928;2023-10-08T15:34:26;3.33;;;2.13;;
66946;SDS011;53853;51.982;5.928;2023-10-08T15:36:59;3.45;;;1.95;;
66946;SDS011;53853;51.982;5.928;2023-10-08T15:39:29;3.78;;;2.00;;
66946;SDS011;53853;51.982;5.928;2023-10-08T15:41:59;3.45;;;2.05;;
66946;SDS011;53853;51.982;5.928;2023-10-08T15:44:29;2.80;;;1.58;;
66946;SDS011;53853;51.982;5.928;2023-10-08T15:46:59;3.03;;;1.90;;
66946;SDS011;53853;51.982;5.928;2023-10-08T15:49:29;4.15;;;2.13;;
66946;SDS011;53853;51.982;5.928;2023-10-08T15:52:01;3.03;;;1.75;;